• Join FlightAware (Why Join?)
  • Login
  • US Flag 
04:55AM EDT


 

Airport Tracker/Info


-or-


 

Live Flight TrackerFlight Track Log ✈ DAL10 ✈ 08-Apr-2013 ✈ KCVG - KATL

Flight Track Log - Related Links

Times and Time Zones

All times are in EDT time to prevent confusion due to time zone crossing. See the DAL10 flight status page for this flight to view local times or setup timezone preferences in your user account.

Time Position Orientation Groundspeed Altitude Reporting Facility
EDT Latitude Longitude Course Direction KTS MPH feet Rate Location/Type
07:20PM 39.0500 -84.6833 360° North 160 184 1,600  Level Cincinnati TRACON
07:20PM 39.0500 -84.6833 270° West 162 186 1,900 2,220 Climbing Cincinnati TRACON
07:21PM 39.0500 -84.7500 270° West 231 266 4,100 3,060 Climbing Cincinnati TRACON
07:22PM 39.0375 -84.8814 263° West 255 293 9,400 3,000 Climbing Indianapolis Center
07:24PM 38.9636 -84.9017 192° South 305 351 11,500 1,380 Climbing Indianapolis Center
07:25PM 38.8603 -84.8756 169° South 373 429 12,300 2,040 Climbing Indianapolis Center
07:26PM 38.7567 -84.9042 192° South 375 432 15,800 3,120 Climbing Indianapolis Center
07:27PM 38.6375 -84.9364 192° South 390 449 18,800 2,940 Climbing Indianapolis Center
07:28PM 38.5272 -84.9658 192° South 400 460 21,900 2,820 Climbing Indianapolis Center
07:29PM 38.4164 -84.9942 191° South 405 466 24,600 2,460 Climbing Indianapolis Center
07:30PM 38.3086 -85.0383 198° South 407 468 27,000 2,160 Climbing Indianapolis Center
07:31PM 38.2231 -85.1203 217° Southwest 390 449 29,100 1,920 Climbing Indianapolis Center
07:32PM 38.1347 -85.2128 219° Southwest 387 445 31,000 1,740 Climbing Indianapolis Center
07:33PM 38.0514 -85.3022 220° Southwest 389 448 32,700 1,560 Climbing Indianapolis Center
07:34PM 37.9692 -85.3886 220° Southwest 385 443 34,200 1,380 Climbing Indianapolis Center
07:35PM 37.8881 -85.4753 220° Southwest 380 437 35,600 1,140 Climbing Indianapolis Center
07:36PM 37.8072 -85.5611 220° Southwest 377 434 36,600 660 Climbing Indianapolis Center
07:37PM 37.7261 -85.6458 220° Southwest 376 433 37,000 180 Climbing Indianapolis Center
07:38PM 37.6461 -85.7303 220° Southwest 373 429 37,000  Level Indianapolis Center
07:39PM 37.5650 -85.8142 219° Southwest 374 430 37,000  Level Indianapolis Center
07:40PM 37.4764 -85.9033 219° Southwest 380 437 37,000  Level Indianapolis Center
07:41PM 37.3931 -85.9878 219° Southwest 380 437 37,000  Level Indianapolis Center
07:42PM 37.3089 -86.0733 219° Southwest 384 442 37,000  Level Indianapolis Center
07:43PM 37.2494 -86.1331 219° Southwest 391 450 37,000  Level Memphis Center
07:44PM 37.1669 -86.2131 218° Southwest 391 450 37,000  Level Memphis Center
07:45PM 37.0800 -86.2956 217° Southwest 391 450 37,000  Level Memphis Center
07:46PM 36.9992 -86.3775 219° Southwest 391 450 37,000  Level Memphis Center
07:47PM 36.9056 -86.4419 209° Southwest 386 444 37,000  Level Memphis Center
07:48PM 36.7783 -86.4378 178° South 392 451 37,000 -240 Level Memphis Center
07:49PM 36.6611 -86.4253 175° South 409 471 36,600 -1,200 Descending Memphis Center
07:50PM 36.5461 -86.4181 177° South 421 484 34,700 -1,800 Descending Memphis Center
07:51PM 36.4292 -86.4108 177° South 426 490 33,000 -900 Descending Memphis Center
07:52PM 36.3081 -86.4011 176° South 426 490 33,000  Level Memphis Center
07:53PM 36.1892 -86.3942 177° South 426 490 33,000  Level Memphis Center
07:54PM 36.0825 -86.3889 178° South 426 490 33,000  Level Memphis Center
07:55PM 35.9656 -86.3794 176° South 426 490 33,000  Level Memphis Center
07:56PM 35.8442 -86.3725 177° South 426 490 33,000  Level Memphis Center
07:58PM 35.5839 -86.2375 157° South 452 520 33,000  Level Atlanta Center
07:59PM 35.4769 -86.1556 148° Southeast 458 527 33,000 -240 Level Atlanta Center
08:00PM 35.3742 -86.0661 145° Southeast 458 527 32,600 -720 Descending Atlanta Center
08:01PM 35.2464 -85.9639 147° Southeast 458 527 31,500 -900 Descending Atlanta Center
08:02PM 35.1392 -85.8828 148° Southeast 458 527 30,700 -900 Descending Atlanta Center
08:03PM 35.0297 -85.7967 147° Southeast 458 527 29,800 -960 Descending Atlanta Center
08:04PM 34.9203 -85.7131 148° Southeast 464 534 28,800 -720 Descending Atlanta Center
08:05PM 34.8089 -85.6225 146° Southeast 470 541 28,400 -720 Descending Atlanta Center
08:06PM 34.6992 -85.5394 148° Southeast 470 541 27,400 -960 Descending Atlanta Center
08:07PM 34.5917 -85.4544 147° Southeast 470 541 26,500 -1,800 Descending Atlanta Center
08:08PM 34.4861 -85.3719 147° Southeast 470 541 23,900 -2,760 Descending Atlanta Center
08:09PM 34.3869 -85.2922 146° Southeast 456 525 21,000 -2,820 Descending Atlanta Center
08:10PM 34.2853 -85.2153 148° Southeast 432 497 18,300 -2,700 Descending Atlanta Center
08:11PM 34.1797 -85.1336 147° Southeast 419 482 15,600 -2,160 Descending Atlanta Center
08:12PM 34.0992 -85.0422 137° Southeast 409 471 14,000 -840 Descending Atlanta Center
08:13PM 34.0247 -84.9436 132° Southeast 395 455 14,000 -120 Level Atlanta Center
08:14PM 33.9503 -84.8503 134° Southeast 390 449 13,800 -780 Descending Atlanta Center
08:15PM 33.8756 -84.7544 133° Southeast 385 443 12,500 -1,320 Descending Atlanta Center
08:16PM 33.8500 -84.7167 129° Southeast 376 433 12,000 -420 Descending Atlanta TRACON
08:17PM 33.7833 -84.6333 134° Southeast 363 418 12,000 -240 Level Atlanta TRACON
08:18PM 33.7333 -84.5333 121° Southeast 278 320 11,500 -1,200 Descending Atlanta TRACON
08:19PM 33.7333 -84.4500 90° East 272 313 9,700 -1,980 Descending Atlanta TRACON
08:20PM 33.7333 -84.3667 90° East 260 299 7,600 -1,740 Descending Atlanta TRACON
08:21PM 33.7333 -84.3000 90° East 235 270 6,300 -1,800 Descending Atlanta TRACON
08:21PM 33.6833 -84.2500 140° Southeast 217 250 4,400 -1,740 Descending Atlanta TRACON
08:22PM 33.6500 -84.3000 231° Southwest 189 217 3,100 -1,320 Descending Atlanta TRACON
08:23PM 33.6500 -84.3500 270° West 168 193 1,800 -1,020 Descending Atlanta TRACON
08:24PM 33.6500 -84.4000 270° West 138 159 1,100 -720 Descending Atlanta TRACON
08:26PM 33.6333 -84.4167 257° West  Level FlightAware Approximate
08:33PM 33.6367 -84.4279 257° West  Level Estimated
08:34PM 33.6367 -84.4279 257° West  Level Estimated